Time;durP1;ratioP1;P1;durP2;ratioP2;P2;SDS_P1;SDS_P2;PMS_P1;PMS_P2;Temp;Humidity;BMP_temperature;BMP_pressure;BME280_temperature;BME280_humidity;BME280_pressure;Samples;Min_cycle;Max_cycle;Signal;HPM_P1;HPM_P2
2021/09/12 00:00:27;;;;;;;18.70;11.30;;;;;;;14.26;73.70;98481.67;111963;1212;25088;-76
2021/09/12 00:03:08;;;;;;;19.00;11.80;;;;;;;14.27;73.82;98481.85;112063;1212;22485;-76
2021/09/12 00:05:35;;;;;;;18.50;12.10;;;;;;;14.26;73.79;98477.02;112085;1212;25076;-76
2021/09/12 00:08:16;;;;;;;17.10;11.50;;;;;;;14.27;73.96;98478.11;111924;1212;22567;-76
2021/09/12 00:10:44;;;;;;;16.60;11.00;;;;;;;14.28;73.89;98476.91;111933;1212;24100;-76
2021/09/12 00:13:11;;;;;;;17.70;11.80;;;;;;;14.31;73.98;98478.83;112073;1211;24134;-76
2021/09/12 00:15:38;;;;;;;17.40;11.40;;;;;;;14.35;73.91;98477.91;112161;1203;22459;-76
2021/09/12 00:18:05;;;;;;;20.50;12.00;;;;;;;14.37;73.84;98476.83;111891;1212;22498;-76
2021/09/12 00:20:46;;;;;;;16.50;12.10;;;;;;;14.40;73.90;98478.98;111691;1213;23511;-76
2021/09/12 00:23:13;;;;;;;19.00;11.40;;;;;;;14.41;73.75;98480.40;111627;1215;22456;-76
2021/09/12 00:25:40;;;;;;;17.40;10.40;;;;;;;14.41;73.52;98483.74;111977;1212;22474;-76
2021/09/12 00:28:08;;;;;;;17.10;11.00;;;;;;;14.41;73.58;98480.84;111920;1212;22094;-76
2021/09/12 00:30:49;;;;;;;18.10;10.70;;;;;;;14.43;73.61;98478.15;111976;1212;24053;-76
2021/09/12 00:33:31;;;;;;;19.90;11.30;;;;;;;14.44;73.62;98476.30;111928;1211;25212;-76
2021/09/12 00:35:59;;;;;;;17.80;10.80;;;;;;;14.45;73.81;98474.93;111705;1214;23027;-76
2021/09/12 00:38:39;;;;;;;17.90;11.80;;;;;;;14.41;73.87;98474.33;111875;1212;22469;-76
2021/09/12 00:41:06;;;;;;;15.30;10.60;;;;;;;14.38;73.72;98474.91;112051;1212;26403;-76
2021/09/12 00:43:33;;;;;;;14.60;10.30;;;;;;;14.35;73.87;98473.85;111967;1212;25646;-76
2021/09/12 00:46:06;;;;;;;16.90;11.10;;;;;;;14.34;74.00;98471.23;111955;1212;22470;-76
2021/09/12 00:48:47;;;;;;;18.60;11.80;;;;;;;14.33;74.17;98468.21;111733;1219;22578;-76
2021/09/12 00:51:13;;;;;;;22.60;13.40;;;;;;;14.32;74.20;98472.86;112052;1212;25360;-76
2021/09/12 00:53:41;;;;;;;20.80;13.20;;;;;;;14.30;74.35;98469.68;111874;1213;22456;-76
2021/09/12 00:56:23;;;;;;;19.60;13.20;;;;;;;14.26;74.14;98467.27;111711;1212;22456;-76
2021/09/12 00:58:52;;;;;;;19.20;13.50;;;;;;;14.23;74.19;98469.82;112091;1212;22445;-76
2021/09/12 01:01:19;;;;;;;23.20;13.60;;;;;;;14.21;74.15;98473.98;111997;1212;24066;-76
2021/09/12 01:04:00;;;;;;;21.70;13.50;;;;;;;14.18;74.42;98469.58;111986;1211;24124;-76
2021/09/12 01:06:29;;;;;;;23.30;13.70;;;;;;;14.15;74.59;98471.17;111684;1212;22472;-76
2021/09/12 01:09:09;;;;;;;22.50;13.50;;;;;;;14.13;74.73;98469.79;112013;1211;24084;-76
2021/09/12 01:11:36;;;;;;;24.30;13.50;;;;;;;14.12;74.85;98470.72;111834;1212;22482;-76
2021/09/12 01:14:03;;;;;;;24.30;13.10;;;;;;;14.13;74.81;98469.57;112098;1212;22291;-76
2021/09/12 01:16:44;;;;;;;20.60;12.60;;;;;;;14.15;74.88;98470.84;111726;1213;22461;-76
2021/09/12 01:19:11;;;;;;;23.50;13.70;;;;;;;14.17;75.02;98466.34;111736;1213;22474;-76
2021/09/12 01:21:38;;;;;;;20.80;12.60;;;;;;;14.20;75.04;98466.09;111575;1215;23574;-76
2021/09/12 01:24:08;;;;;;;20.40;13.80;;;;;;;14.22;75.03;98469.92;111790;1213;24072;-76
2021/09/12 01:26:35;;;;;;;20.80;13.20;;;;;;;14.23;75.15;98464.45;111750;1213;22603;-76
2021/09/12 01:29:02;;;;;;;17.60;12.30;;;;;;;14.25;74.98;98465.39;111733;1212;24163;-76
2021/09/12 01:31:32;;;;;;;21.30;13.40;;;;;;;14.27;75.15;98463.98;111657;1212;25525;-76
2021/09/12 01:34:13;;;;;;;20.70;13.50;;;;;;;14.31;75.07;98469.02;111817;1213;22621;-76
2021/09/12 01:36:54;;;;;;;22.70;13.70;;;;;;;14.34;75.14;98470.90;111900;1213;25200;-76
2021/09/12 01:39:21;;;;;;;22.70;13.40;;;;;;;14.35;75.05;98467.61;111666;1215;25060;-76
2021/09/12 01:41:48;;;;;;;19.30;12.40;;;;;;;14.37;74.81;98464.11;111845;1213;25203;-76
2021/09/12 01:44:17;;;;;;;21.90;12.30;;;;;;;14.36;74.81;98464.33;111725;1212;22463;-76
2021/09/12 01:46:47;;;;;;;;;;;;;;;14.38;74.87;98467.41;111818;1217;24061;-76
2021/09/12 01:49:15;;;;;;;23.50;14.00;;;;;;;14.36;75.01;98469.27;111964;1213;22469;-76
2021/09/12 01:51:43;;;;;;;23.90;14.90;;;;;;;14.36;74.92;98468.11;111923;1213;24221;-76
2021/09/12 01:54:10;;;;;;;20.20;14.00;;;;;;;14.34;75.04;98469.14;111849;1219;22488;-76
2021/09/12 01:56:37;;;;;;;22.20;14.10;;;;;;;14.33;74.82;98468.88;111593;1215;24143;-76
2021/09/12 01:59:04;;;;;;;20.20;12.80;;;;;;;14.31;74.87;98468.76;111560;1213;24199;-76
2021/09/12 02:01:46;;;;;;;19.40;13.20;;;;;;;14.32;74.80;98462.83;111833;1219;22611;-76
2021/09/12 02:04:13;;;;;;;21.30;13.80;;;;;;;14.31;74.85;98462.61;111899;1212;22476;-76
2021/09/12 02:06:40;;;;;;;21.00;13.80;;;;;;;14.30;74.77;98465.85;111937;1211;24046;-76
2021/09/12 02:09:07;;;;;;;23.00;14.60;;;;;;;14.29;74.90;98470.49;111770;1213;22562;-76
2021/09/12 02:11:34;;;;;;;21.60;15.30;;;;;;;14.25;74.86;98471.25;111582;1213;22497;-76
2021/09/12 02:14:01;;;;;;;18.60;12.70;;;;;;;14.23;74.95;98467.63;111949;1218;24158;-76
2021/09/12 02:16:28;;;;;;;21.80;15.40;;;;;;;14.21;75.05;98469.76;111930;1205;22466;-76
2021/09/12 02:18:55;;;;;;;21.60;14.40;;;;;;;14.17;74.96;98468.22;111941;1211;23943;-76
2021/09/12 02:21:22;;;;;;;26.40;15.20;;;;;;;14.15;75.24;98471.11;111869;1213;25204;-76
2021/09/12 02:23:49;;;;;;;26.10;15.70;;;;;;;14.13;75.36;98467.00;111843;1212;25072;-76
2021/09/12 02:26:16;;;;;;;24.60;15.20;;;;;;;14.08;75.26;98469.55;111704;1212;25411;-76
2021/09/12 02:28:57;;;;;;;24.10;14.00;;;;;;;14.02;75.42;98470.95;111879;1212;22453;-76
2021/09/12 02:31:38;;;;;;;20.60;14.20;;;;;;;14.01;75.74;98470.95;111793;1212;25126;-76
2021/09/12 02:34:05;;;;;;;22.80;14.20;;;;;;;14.01;75.82;98469.63;111865;1213;22470;-76
2021/09/12 02:36:33;;;;;;;26.40;15.50;;;;;;;14.01;75.93;98466.61;112057;1219;24297;-76
2021/09/12 02:39:01;;;;;;;22.20;14.60;;;;;;;14.02;76.03;98467.33;111990;1211;24206;-76
2021/09/12 02:41:28;;;;;;;24.10;15.30;;;;;;;13.98;76.03;98472.41;112058;1219;23723;-76
2021/09/12 02:43:55;;;;;;;27.20;15.10;;;;;;;13.95;76.09;98469.55;111810;1219;24067;-76
2021/09/12 02:46:22;;;;;;;22.20;15.10;;;;;;;13.94;76.20;98467.08;111902;1210;24266;-76
2021/09/12 02:48:49;;;;;;;21.70;15.10;;;;;;;13.94;76.26;98467.14;111901;1213;22466;-76
2021/09/12 02:51:16;;;;;;;25.40;15.30;;;;;;;13.93;76.44;98469.58;111965;1205;22462;-76
2021/09/12 02:53:43;;;;;;;25.50;16.20;;;;;;;13.90;76.59;98470.67;111987;1212;24338;-76
2021/09/12 02:56:10;;;;;;;26.90;15.90;;;;;;;13.85;76.66;98471.36;112067;1212;22452;-76
2021/09/12 02:58:37;;;;;;;24.20;14.20;;;;;;;13.84;76.78;98474.47;111896;1209;24057;-76
2021/09/12 03:01:04;;;;;;;22.50;15.20;;;;;;;13.83;76.69;98473.77;111957;1212;22559;-76
2021/09/12 03:03:31;;;;;;;26.60;16.10;;;;;;;13.82;76.82;98477.31;111964;1211;22483;-76
2021/09/12 03:05:58;;;;;;;22.70;15.90;;;;;;;13.80;76.89;98484.04;111787;1211;22465;-76
2021/09/12 03:08:25;;;;;;;23.90;15.20;;;;;;;13.76;76.90;98485.33;111821;1213;24054;-76
2021/09/12 03:10:53;;;;;;;25.00;15.70;;;;;;;13.70;76.91;98485.66;112012;1205;22450;-76
2021/09/12 03:13:20;;;;;;;21.70;14.50;;;;;;;13.66;77.08;98485.39;112097;1216;22462;-76
2021/09/12 03:15:47;;;;;;;23.00;15.00;;;;;;;13.65;77.28;98484.05;111950;1207;25395;-76
2021/09/12 03:18:14;;;;;;;25.90;16.40;;;;;;;13.65;77.45;98485.42;111754;1213;24094;-76
2021/09/12 03:20:41;;;;;;;25.60;16.70;;;;;;;13.63;77.59;98483.56;112129;1219;22478;-76
2021/09/12 03:23:08;;;;;;;25.10;15.80;;;;;;;13.61;77.75;98481.46;111802;1214;22515;-76
2021/09/12 03:25:34;;;;;;;22.80;15.60;;;;;;;13.60;77.95;98494.05;111908;1216;22497;-76
2021/09/12 03:28:02;;;;;;;20.40;15.00;;;;;;;13.59;77.93;98489.88;111945;1211;24204;-76
2021/09/12 03:30:29;;;;;;;21.80;15.90;;;;;;;13.58;78.13;98492.23;111776;1213;22470;-76
2021/09/12 03:32:55;;;;;;;21.50;14.90;;;;;;;13.58;78.16;98482.53;111912;1211;22459;-76
2021/09/12 03:35:22;;;;;;;24.30;16.60;;;;;;;13.60;78.41;98479.55;111838;1219;22454;-76
2021/09/12 03:38:03;;;;;;;21.90;14.80;;;;;;;13.63;78.37;98481.86;111903;1214;22481;-76
2021/09/12 03:40:30;;;;;;;21.10;14.90;;;;;;;13.64;78.45;98482.08;111841;1219;22774;-76
2021/09/12 03:42:57;;;;;;;27.30;14.90;;;;;;;13.65;78.33;98479.58;111857;1213;24192;-76
2021/09/12 03:45:24;;;;;;;26.50;16.30;;;;;;;13.68;78.45;98480.40;111940;1213;22471;-76
2021/09/12 03:47:51;;;;;;;21.50;16.00;;;;;;;13.68;78.37;98487.02;111920;1216;24125;-76
2021/09/12 03:50:18;;;;;;;19.90;14.60;;;;;;;13.63;78.58;98485.25;112028;1213;22493;-76
2021/09/12 03:52:45;;;;;;;18.60;15.10;;;;;;;13.60;78.70;98488.30;111861;1213;25208;-76
2021/09/12 03:55:12;;;;;;;24.00;16.50;;;;;;;13.60;78.98;98487.70;111893;1217;22457;-76
2021/09/12 03:57:53;;;;;;;24.90;14.10;;;;;;;13.58;78.94;98497.48;111863;1216;22469;-76
2021/09/12 04:00:20;;;;;;;21.50;17.60;;;;;;;13.52;79.15;98494.15;111875;1219;25219;-75
2021/09/12 04:03:01;;;;;;;26.10;16.90;;;;;;;13.50;79.19;98489.16;111995;1216;22470;-75
2021/09/12 04:05:28;;;;;;;26.00;17.00;;;;;;;13.49;79.30;98484.02;111980;1219;25077;-75
2021/09/12 04:07:55;;;;;;;23.40;15.40;;;;;;;13.51;79.60;98485.39;111718;1219;22463;-75
2021/09/12 04:10:22;;;;;;;24.80;17.70;;;;;;;13.51;79.64;98487.86;111852;1213;22716;-76
2021/09/12 04:12:49;;;;;;;26.00;19.30;;;;;;;13.53;79.85;98490.38;111888;1216;23102;-76
2021/09/12 04:15:16;;;;;;;23.50;17.30;;;;;;;13.55;79.99;98490.78;111901;1216;22781;-75
2021/09/12 04:17:57;;;;;;;24.40;17.90;;;;;;;13.57;80.02;98492.04;111920;1213;23017;-76
2021/09/12 04:20:24;;;;;;;23.70;16.70;;;;;;;13.59;80.06;98489.56;111993;1216;25162;-75
2021/09/12 04:22:51;;;;;;;24.50;17.60;;;;;;;13.64;79.98;98494.94;111961;1211;25163;-75
2021/09/12 04:25:18;;;;;;;27.80;19.50;;;;;;;13.68;79.95;98494.38;111639;1215;25162;-75
2021/09/12 04:27:59;;;;;;;28.00;18.40;;;;;;;13.72;79.87;98494.33;111948;1211;22466;-75
2021/09/12 04:30:26;;;;;;;23.10;16.20;;;;;;;13.73;79.91;98491.71;111953;1213;22470;-75
2021/09/12 04:32:53;;;;;;;20.50;15.40;;;;;;;13.73;80.04;98493.20;111872;1212;22457;-75
2021/09/12 04:35:20;;;;;;;27.10;16.90;;;;;;;13.73;80.00;98492.14;111964;1213;25343;-75
2021/09/12 04:38:03;;;;;;;24.00;17.80;;;;;;;13.77;79.93;98491.67;111863;1213;22449;-75
2021/09/12 04:40:31;;;;;;;25.40;17.80;;;;;;;13.83;80.11;98487.28;111879;1216;22793;-76
2021/09/12 04:43:12;;;;;;;23.70;18.30;;;;;;;13.90;80.06;98490.05;111785;1213;22485;-76
2021/09/12 04:45:39;;;;;;;28.80;18.10;;;;;;;13.96;79.82;98489.36;111963;1219;22768;-75
2021/09/12 04:48:20;;;;;;;21.60;17.00;;;;;;;14.00;79.64;98493.93;111910;1219;25212;-75
2021/09/12 04:50:46;;;;;;;25.30;17.60;;;;;;;14.04;79.47;98498.39;112046;1212;22552;-76
2021/09/12 04:53:14;;;;;;;25.00;17.90;;;;;;;14.08;79.37;98495.66;112088;1216;22857;-76
2021/09/12 04:55:41;;;;;;;25.70;19.90;;;;;;;14.10;79.37;98494.20;111806;1213;22480;-75
2021/09/12 04:58:21;;;;;;;22.80;17.90;;;;;;;14.13;79.25;98493.88;111787;1213;22479;-76
2021/09/12 05:01:03;;;;;;;21.80;16.20;;;;;;;14.13;79.01;98491.47;111968;1217;23448;-75
2021/09/12 05:03:44;;;;;;;25.50;17.10;;;;;;;14.12;78.80;98498.48;112053;1216;22457;-76
2021/09/12 05:06:11;;;;;;;27.40;19.10;;;;;;;14.05;78.80;98494.23;112028;1216;22456;-76
2021/09/12 05:08:38;;;;;;;24.40;17.80;;;;;;;14.02;78.99;98494.11;111771;1216;22479;-75
2021/09/12 05:11:19;;;;;;;25.10;17.20;;;;;;;14.00;79.10;98497.12;111974;1216;22444;-75
2021/09/12 05:13:46;;;;;;;24.30;16.70;;;;;;;14.01;79.18;98496.14;111995;1214;22470;-76
2021/09/12 05:16:13;;;;;;;25.90;17.20;;;;;;;14.06;79.21;98495.21;111968;1216;26297;-76
2021/09/12 05:18:40;;;;;;;25.80;18.90;;;;;;;14.10;79.13;98498.42;111924;1214;22469;-75
2021/09/12 05:21:20;;;;;;;22.50;15.30;;;;;;;14.08;79.00;98498.46;112037;1219;22497;-76
2021/09/12 05:23:47;;;;;;;20.10;15.70;;;;;;;14.01;79.14;98501.17;112015;1209;22468;-75
2021/09/12 05:26:14;;;;;;;22.70;14.90;;;;;;;13.92;79.26;98502.83;112118;1219;22458;-75
2021/09/12 05:28:41;;;;;;;20.30;14.70;;;;;;;13.86;79.59;98508.37;112026;1212;24219;-75
2021/09/12 05:31:09;;;;;;;25.10;16.60;;;;;;;13.81;79.80;98507.31;111771;1212;25091;-75
2021/09/12 05:33:36;;;;;;;23.40;17.90;;;;;;;13.79;80.16;98503.73;111879;1216;22447;-75
2021/09/12 05:36:03;;;;;;;27.30;17.90;;;;;;;13.80;80.34;98502.70;111957;1216;22551;-75
2021/09/12 05:38:30;;;;;;;20.60;16.20;;;;;;;13.82;80.50;98506.66;111932;1214;22472;-75
2021/09/12 05:40:57;;;;;;;23.30;15.20;;;;;;;13.87;80.46;98506.23;111975;1213;22789;-76
2021/09/12 05:43:24;;;;;;;23.80;16.50;;;;;;;13.91;80.42;98506.60;111905;1213;22607;-76
2021/09/12 05:45:51;;;;;;;25.20;16.90;;;;;;;13.98;80.26;98506.48;111714;1211;25088;-76
2021/09/12 05:48:32;;;;;;;26.60;17.50;;;;;;;14.08;80.45;98505.25;112037;1216;22482;-76
2021/09/12 05:51:13;;;;;;;26.10;17.50;;;;;;;14.21;80.29;98508.15;111762;1218;22468;-76
2021/09/12 05:53:53;;;;;;;22.10;16.70;;;;;;;14.32;80.14;98504.43;111840;1219;22560;-76
2021/09/12 05:56:20;;;;;;;22.00;16.30;;;;;;;14.40;79.74;98501.22;111695;1219;22577;-76
2021/09/12 05:59:01;;;;;;;22.20;17.00;;;;;;;14.50;79.41;98502.84;111902;1215;25202;-75
2021/09/12 06:01:29;;;;;;;23.90;15.80;;;;;;;14.59;79.02;98504.04;112000;1209;25225;-75
2021/09/12 06:03:56;;;;;;;21.70;16.60;;;;;;;14.65;78.89;98504.94;111968;1213;24168;-76
2021/09/12 06:06:23;;;;;;;23.90;17.10;;;;;;;14.69;78.58;98503.41;111956;1216;25156;-76
2021/09/12 06:09:05;;;;;;;26.20;17.10;;;;;;;14.74;78.55;98503.76;111953;1216;24190;-76
2021/09/12 06:11:46;;;;;;;26.50;16.80;;;;;;;14.81;78.51;98504.69;112201;1216;22503;-76
2021/09/12 06:14:27;;;;;;;22.40;16.50;;;;;;;14.87;78.42;98507.73;112047;1215;24403;-76
2021/09/12 06:16:54;;;;;;;25.80;17.70;;;;;;;14.90;78.47;98509.64;111856;1211;22571;-76
2021/09/12 06:19:36;;;;;;;24.10;17.20;;;;;;;14.95;78.40;98510.42;111944;1216;25087;-76
2021/09/12 06:22:17;;;;;;;23.50;17.20;;;;;;;15.02;78.39;98516.45;111962;1211;25169;-76
2021/09/12 06:24:45;;;;;;;22.40;15.50;;;;;;;15.09;78.49;98516.75;111849;1213;22450;-76
2021/09/12 06:27:12;;;;;;;24.70;16.30;;;;;;;15.16;78.50;98512.36;111866;1216;22642;-76
2021/09/12 06:29:39;;;;;;;22.80;16.80;;;;;;;15.23;78.26;98511.26;111937;1209;22543;-76
2021/09/12 06:32:07;;;;;;;29.30;18.00;;;;;;;15.31;78.17;98508.80;112019;1211;22446;-76
2021/09/12 06:34:35;;;;;;;23.80;16.50;;;;;;;15.40;78.08;98505.88;111991;1212;22440;-76
2021/09/12 06:37:02;;;;;;;20.50;16.30;;;;;;;15.46;77.96;98506.59;112131;1211;23749;-76
2021/09/12 06:39:29;;;;;;;22.30;15.30;;;;;;;15.54;77.85;98513.73;111937;1216;25092;-75
2021/09/12 06:41:56;;;;;;;21.20;14.90;;;;;;;15.62;77.40;98512.84;111945;1213;23009;-75
2021/09/12 06:44:37;;;;;;;20.40;15.20;;;;;;;15.73;77.72;98511.45;111955;1216;25088;-75
2021/09/12 06:47:18;;;;;;;21.60;15.70;;;;;;;15.82;77.33;98508.38;111948;1217;24260;-76
2021/09/12 06:49:45;;;;;;;24.90;15.90;;;;;;;15.90;77.02;98517.31;111915;1218;22456;-75
2021/09/12 06:52:12;;;;;;;18.50;14.30;;;;;;;15.98;76.82;98510.80;112020;1211;25116;-76
2021/09/12 06:54:53;;;;;;;23.40;13.30;;;;;;;16.08;76.35;98509.58;112089;1216;25034;-76
2021/09/12 06:57:34;;;;;;;25.90;14.40;;;;;;;16.20;76.22;98511.23;112002;1216;23025;-76
2021/09/12 07:00:01;;;;;;;23.30;13.50;;;;;;;16.29;75.79;98512.29;112120;1211;22474;-76
2021/09/12 07:02:28;;;;;;;18.70;13.50;;;;;;;16.38;75.56;98515.27;111823;1216;25305;-74
2021/09/12 07:04:55;;;;;;;18.70;13.30;;;;;;;16.46;75.28;98515.46;111640;1214;22539;-75
2021/09/12 07:07:22;;;;;;;20.40;13.70;;;;;;;16.54;75.27;98518.00;111980;1212;22886;-75
2021/09/12 07:09:49;;;;;;;18.60;13.00;;;;;;;16.64;74.99;98520.42;111698;1214;22574;-75
2021/09/12 07:12:16;;;;;;;18.40;13.50;;;;;;;16.74;74.79;98515.42;111672;1215;25172;-75
2021/09/12 07:14:57;;;;;;;19.00;12.50;;;;;;;16.86;74.38;98513.84;111933;1213;22985;-75
2021/09/12 07:17:24;;;;;;;18.70;12.50;;;;;;;16.95;74.23;98513.34;111880;1216;24095;-75
2021/09/12 07:19:51;;;;;;;15.90;12.40;;;;;;;17.04;73.65;98513.66;111902;1219;24140;-75
2021/09/12 07:22:18;;;;;;;17.10;12.10;;;;;;;17.13;73.41;98520.48;112010;1212;22476;-75
2021/09/12 07:24:45;;;;;;;22.00;13.10;;;;;;;17.22;73.20;98517.87;111871;1209;24126;-75
2021/09/12 07:27:12;;;;;;;15.60;11.80;;;;;;;17.32;72.95;98519.84;111974;1216;22594;-75
2021/09/12 07:29:39;;;;;;;15.90;12.40;;;;;;;17.42;72.95;98520.95;111863;1217;22461;-75
2021/09/12 07:32:19;;;;;;;14.40;12.00;;;;;;;17.55;72.85;98523.17;112033;1212;25171;-75
2021/09/12 07:35:00;;;;;;;15.40;12.20;;;;;;;17.65;72.42;98520.59;112052;1216;25203;-75
2021/09/12 07:37:27;;;;;;;19.90;13.90;;;;;;;17.75;72.51;98525.73;112246;1212;25153;-75
2021/09/12 07:39:55;;;;;;;15.20;13.00;;;;;;;17.86;72.57;98528.45;112012;1212;24196;-75
2021/09/12 07:42:23;;;;;;;20.80;13.60;;;;;;;17.96;72.22;98525.94;111840;1212;25230;-75
2021/09/12 07:45:05;;;;;;;19.80;12.80;;;;;;;18.08;72.35;98525.64;111918;1219;23816;-75
2021/09/12 07:47:46;;;;;;;17.90;12.50;;;;;;;18.23;72.35;98524.26;111961;1211;23766;-75
2021/09/12 07:50:27;;;;;;;18.60;14.40;;;;;;;18.38;72.46;98526.39;111874;1215;22551;-75
2021/09/12 07:52:54;;;;;;;18.90;14.00;;;;;;;18.53;72.16;98530.84;111885;1212;22458;-75
2021/09/12 07:55:22;;;;;;;23.00;16.50;;;;;;;18.65;71.65;98527.11;112073;1216;23803;-75
2021/09/12 07:57:49;;;;;;;19.00;14.60;;;;;;;18.78;71.39;98532.73;112171;1216;22492;-75
2021/09/12 08:00:17;;;;;;;20.90;15.10;;;;;;;18.89;71.20;98531.16;112071;1212;22468;-75
2021/09/12 08:02:58;;;;;;;20.60;15.30;;;;;;;19.02;71.06;98534.60;112038;1211;24054;-75
2021/09/12 08:05:26;;;;;;;21.50;14.80;;;;;;;19.15;71.12;98536.96;111951;1211;22454;-75
2021/09/12 08:07:53;;;;;;;24.30;16.00;;;;;;;19.28;70.47;98535.92;111867;1212;25132;-75
2021/09/12 08:10:20;;;;;;;23.90;16.10;;;;;;;19.39;70.18;98533.25;111660;1213;25159;-75
2021/09/12 08:13:01;;;;;;;23.90;15.60;;;;;;;19.53;70.02;98531.77;111821;1216;22483;-75
2021/09/12 08:15:28;;;;;;;21.20;15.10;;;;;;;19.65;70.07;98533.83;111964;1205;25306;-75
2021/09/12 08:18:09;;;;;;;20.50;14.70;;;;;;;19.80;70.42;98531.81;111939;1214;22472;-75
2021/09/12 08:20:37;;;;;;;19.80;14.40;;;;;;;19.93;69.69;98525.39;112023;1213;22609;-75
2021/09/12 08:23:04;;;;;;;21.20;14.30;;;;;;;20.05;68.95;98530.30;111927;1215;22603;-75
2021/09/12 08:25:31;;;;;;;23.60;14.90;;;;;;;20.15;68.75;98529.38;112204;1209;22470;-75
2021/09/12 08:27:58;;;;;;;18.80;13.50;;;;;;;20.27;68.44;98527.05;111850;1219;22452;-75
2021/09/12 08:30:25;;;;;;;17.60;13.70;;;;;;;20.39;68.23;98528.65;112199;1218;24097;-75
2021/09/12 08:32:52;;;;;;;20.50;13.20;;;;;;;20.50;67.94;98524.26;111807;1217;25145;-75
2021/09/12 08:35:20;;;;;;;20.10;14.20;;;;;;;20.61;67.63;98525.15;111935;1212;22530;-75
2021/09/12 08:38:01;;;;;;;20.50;13.50;;;;;;;20.74;67.31;98524.34;111862;1213;22452;-75
2021/09/12 08:40:42;;;;;;;19.90;13.70;;;;;;;20.84;66.97;98523.06;111874;1212;22524;-75
2021/09/12 08:43:24;;;;;;;17.90;13.40;;;;;;;20.94;66.63;98522.95;111754;1214;22749;-75
2021/09/12 08:45:51;;;;;;;19.70;14.20;;;;;;;21.04;66.61;98525.27;111645;1214;22885;-75
2021/09/12 08:48:18;;;;;;;16.90;13.40;;;;;;;21.15;66.08;98525.78;111978;1219;24285;-75
2021/09/12 08:50:46;;;;;;;16.50;13.50;;;;;;;21.24;65.50;98523.96;111897;1212;25091;-75
2021/09/12 08:53:27;;;;;;;18.60;13.30;;;;;;;21.33;65.51;98515.83;111832;1212;22744;-75
2021/09/12 08:55:55;;;;;;;15.20;12.30;;;;;;;21.42;65.50;98519.54;112022;1214;22975;-75
2021/09/12 08:58:22;;;;;;;19.60;12.70;;;;;;;21.52;65.59;98515.66;111922;1209;22595;-75
2021/09/12 09:01:03;;;;;;;16.80;12.10;;;;;;;21.64;65.28;98510.90;111968;1213;22559;-75
2021/09/12 09:03:44;;;;;;;17.60;12.70;;;;;;;21.78;65.08;98510.05;111831;1216;25220;-75
2021/09/12 09:06:19;;;;;;;19.50;13.80;;;;;;;21.92;65.03;98512.17;111710;1213;22602;-75
2021/09/12 09:08:56;;;;;;;16.60;12.20;;;;;;;22.07;64.53;98511.23;111582;1210;24076;-75
2021/09/12 09:11:42;;;;;;;15.00;11.50;;;;;;;22.22;64.54;98509.98;111755;1213;22475;-75
2021/09/12 09:14:21;;;;;;;15.50;11.30;;;;;;;22.38;63.90;98507.64;111760;1212;22457;-75
2021/09/12 09:16:50;;;;;;;14.30;11.10;;;;;;;22.53;63.39;98500.49;111997;1216;25059;-75
2021/09/12 09:19:18;;;;;;;13.80;11.50;;;;;;;22.66;63.05;98505.27;111961;1207;25069;-75
2021/09/12 09:21:47;;;;;;;14.40;10.50;;;;;;;22.81;62.95;98507.92;111886;1213;25139;-75
2021/09/12 09:24:21;;;;;;;13.80;10.30;;;;;;;22.92;63.02;98508.66;111796;1212;25318;-75
2021/09/12 09:26:57;;;;;;;12.50;10.00;;;;;;;22.98;62.22;98507.03;111912;1212;25042;-75
2021/09/12 09:29:35;;;;;;;12.10;8.90;;;;;;;22.98;61.01;98506.80;111810;1212;22473;-75
2021/09/12 09:32:05;;;;;;;11.60;9.10;;;;;;;23.02;60.69;98508.33;111794;1217;25052;-75
2021/09/12 09:34:34;;;;;;;13.50;9.00;;;;;;;23.06;60.11;98507.12;111800;1215;22540;-75
2021/09/12 09:37:15;;;;;;;11.30;9.50;;;;;;;23.11;60.14;98507.13;111580;1218;25072;-75
2021/09/12 09:39:56;;;;;;;13.50;9.10;;;;;;;23.18;59.85;98503.02;112052;1213;23093;-75
2021/09/12 09:42:43;;;;;;;11.50;8.70;;;;;;;23.29;60.35;98503.27;112485;1220;22507;-75
2021/09/12 09:45:25;;;;;;;13.60;9.80;;;;;;;23.40;59.05;98501.33;112162;1219;22548;-75
2021/09/12 09:47:52;;;;;;;15.30;10.10;;;;;;;23.46;59.61;98502.78;112080;1212;24057;-75
2021/09/12 09:50:29;;;;;;;13.10;9.60;;;;;;;23.55;59.20;98498.98;111906;1212;25043;-74
2021/09/12 09:53:14;;;;;;;13.20;8.90;;;;;;;23.66;59.12;98495.74;111971;1212;22552;-74
2021/09/12 09:55:42;;;;;;;9.10;7.30;;;;;;;23.80;59.32;98491.83;112185;1219;24061;-74
2021/09/12 09:58:09;;;;;;;13.40;9.60;;;;;;;23.92;59.59;98491.05;112078;1212;25089;-74
2021/09/12 10:00:37;;;;;;;13.30;9.40;;;;;;;24.07;59.48;98487.88;112122;1212;25201;-75
2021/09/12 10:03:05;;;;;;;9.30;7.40;;;;;;;24.20;57.70;98486.29;111996;1216;23103;-74
2021/09/12 10:05:33;;;;;;;10.90;8.80;;;;;;;24.30;57.47;98483.48;112141;1216;25199;-74
2021/09/12 10:08:15;;;;;;;10.60;8.40;;;;;;;24.39;56.95;98483.45;111912;1212;25171;-74
2021/09/12 10:10:44;;;;;;;10.40;8.50;;;;;;;24.45;57.11;98483.54;111804;1213;22095;-74
2021/09/12 10:13:12;;;;;;;9.30;8.00;;;;;;;24.53;56.63;98481.73;111805;1213;22743;-74
2021/09/12 10:15:56;;;;;;;10.40;8.20;;;;;;;24.63;56.45;98479.89;111718;1212;22472;-74
2021/09/12 10:18:27;;;;;;;11.10;8.40;;;;;;;24.72;55.63;98475.77;111826;1212;25184;-74
2021/09/12 10:20:55;;;;;;;10.80;7.70;;;;;;;24.81;56.02;98471.52;112027;1211;22756;-74
2021/09/12 10:23:36;;;;;;;9.20;7.60;;;;;;;24.93;54.56;98476.83;111585;1216;24035;-74
2021/09/12 10:26:03;;;;;;;10.10;7.80;;;;;;;25.03;54.66;98472.52;112386;1212;22490;-74
2021/09/12 10:28:44;;;;;;;9.40;7.40;;;;;;;25.17;54.82;98466.26;111978;1212;22521;-74
2021/09/12 10:31:27;;;;;;;11.70;7.50;;;;;;;25.32;54.69;98463.39;112184;1212;23822;-74
2021/09/12 10:34:11;;;;;;;11.30;7.70;;;;;;;25.50;54.49;98467.14;112019;1212;22488;-74
2021/09/12 10:36:43;;;;;;;8.70;6.60;;;;;;;25.70;54.42;98465.29;112659;1212;25214;-74
2021/09/12 10:39:24;;;;;;;7.20;6.00;;;;;;;25.83;52.14;98465.04;112100;1213;22578;-74
2021/09/12 10:42:19;;;;;;;7.50;6.10;;;;;;;25.89;50.55;98461.08;112426;1213;22481;-74
2021/09/12 10:45:25;;;;;;;9.20;7.40;;;;;;;25.94;50.81;98454.82;112276;1212;25078;-74
2021/09/12 10:48:20;;;;;;;8.20;6.90;;;;;;;26.02;51.53;98456.11;112084;1216;22513;-74
2021/09/12 10:50:47;;;;;;;9.40;7.00;;;;;;;26.09;51.37;98452.61;112282;1212;25214;-75
2021/09/12 10:53:15;;;;;;;8.70;7.00;;;;;;;26.23;52.28;98449.39;112156;1211;22962;-75
2021/09/12 10:56:02;;;;;;;11.20;7.60;;;;;;;26.38;51.69;98448.99;111948;1211;23196;-75
2021/09/12 10:58:52;;;;;;;7.80;7.00;;;;;;;26.58;50.59;98445.39;111950;1211;25230;-75
2021/09/12 11:01:29;;;;;;;9.20;6.80;;;;;;;26.71;50.21;98441.73;111968;1212;24097;-75
2021/09/12 11:04:00;;;;;;;7.70;6.30;;;;;;;26.87;50.40;98448.44;112066;1212;24125;-75
2021/09/12 11:06:32;;;;;;;6.70;6.10;;;;;;;27.03;49.38;98450.33;112079;1211;24097;-75
2021/09/12 11:09:17;;;;;;;7.30;6.20;;;;;;;27.16;47.79;98443.20;111596;1220;22467;-75
2021/09/12 11:11:45;;;;;;;8.70;6.50;;;;;;;27.25;46.94;98441.15;111678;1219;25007;-74
2021/09/12 11:14:27;;;;;;;7.00;6.30;;;;;;;27.38;47.36;98433.39;111881;1214;25199;-74
2021/09/12 11:17:12;;;;;;;7.50;6.20;;;;;;;27.41;45.72;98431.87;111909;1212;22497;-74
2021/09/12 11:19:54;;;;;;;8.20;5.80;;;;;;;27.39;46.51;98431.95;111955;1212;22472;-74
2021/09/12 11:22:22;;;;;;;8.50;5.90;;;;;;;27.46;46.46;98434.47;111800;1212;24085;-75
2021/09/12 11:24:59;;;;;;;;;;;;;;;27.42;46.53;98435.57;111681;1205;24057;-74
2021/09/12 11:27:29;;;;;;;10.40;7.90;;;;;;;27.22;48.20;98434.98;111835;1213;25519;-74
2021/09/12 11:30:11;;;;;;;8.40;7.50;;;;;;;26.91;49.70;98437.69;111803;1212;22459;-74
2021/09/12 11:32:49;;;;;;;9.40;7.70;;;;;;;26.45;51.61;98435.17;111661;1214;25090;-74